Time;durP1;ratioP1;P1;durP2;ratioP2;P2;SDS_P1;SDS_P2;PMS_P1;PMS_P2;Temp;Humidity;BMP_temperature;BMP_pressure;BME280_temperature;BME280_humidity;BME280_pressure;Samples;Min_cycle;Max_cycle;Signal;HPM_P1;HPM_P2
2021/04/01 00:00:14;;;;;;;56.20;22.20;;;;;;;;;;4992736;28;20271;-58
2021/04/01 00:02:41;;;;;;;49.90;19.57;;;;;;;;;;4992947;28;20329;-59
2021/04/01 00:05:08;;;;;;;47.27;19.50;;;;;;;;;;4993094;28;20276;-59
2021/04/01 00:07:33;;;;;;;45.65;19.58;;;;;;;;;;4991663;28;20280;-57
2021/04/01 00:09:59;;;;;;;44.70;18.90;;;;;;;;;;4992951;28;20034;-58
2021/04/01 00:12:24;;;;;;;46.40;20.60;;;;;;;;;;5007418;28;20466;-57
2021/04/01 00:14:49;;;;;;;53.13;20.20;;;;;;;;;;5008125;28;20353;-58
2021/04/01 00:17:15;;;;;;;47.88;20.23;;;;;;;;;;4991504;28;20146;-57
2021/04/01 00:19:41;;;;;;;46.33;18.83;;;;;;;;;;5011519;28;20160;-58
2021/04/01 00:22:06;;;;;;;46.33;17.57;;;;;;;;;;5012630;28;20038;-59
2021/04/01 00:24:32;;;;;;;51.10;20.30;;;;;;;;;;5012081;28;20033;-59
2021/04/01 00:26:57;;;;;;;48.75;19.77;;;;;;;;;;5012471;28;20255;-58
2021/04/01 00:29:22;;;;;;;43.10;17.90;;;;;;;;;;5012045;28;20095;-57
2021/04/01 00:31:48;;;;;;;45.37;18.93;;;;;;;;;;5012299;28;20095;-57
2021/04/01 00:34:13;;;;;;;51.05;19.35;;;;;;;;;;5011593;28;20042;-57
2021/04/01 00:36:38;;;;;;;47.73;17.00;;;;;;;;;;5012747;28;20021;-58
2021/04/01 00:39:04;;;;;;;47.60;18.87;;;;;;;;;;5012324;28;20041;-58
2021/04/01 00:41:30;;;;;;;48.15;19.27;;;;;;;;;;5026821;28;20034;-58
2021/04/01 00:43:55;;;;;;;43.20;18.47;;;;;;;;;;5011163;28;20109;-58
2021/04/01 00:46:20;;;;;;;54.88;20.70;;;;;;;;;;5011255;28;20283;-62
2021/04/01 00:48:46;;;;;;;54.87;19.33;;;;;;;;;;5011009;28;20125;-59
2021/04/01 00:51:11;;;;;;;41.23;18.63;;;;;;;;;;5017754;28;20041;-60
2021/04/01 00:53:38;;;;;;;46.77;19.67;;;;;;;;;;5009905;28;20157;-59
2021/04/01 00:56:04;;;;;;;43.20;17.80;;;;;;;;;;5013936;28;20262;-60
2021/04/01 00:58:30;;;;;;;46.85;19.15;;;;;;;;;;5023201;28;20022;-59
2021/04/01 01:02:01;;;;;;;44.10;18.67;;;;;;;;;;5021725;28;20041;-60
2021/04/01 01:03:51;;;;;;;37.63;17.70;;;;;;;;;;5006388;28;20041;-58
2021/04/01 01:06:17;;;;;;;38.27;17.67;;;;;;;;;;5020889;28;20378;-58
2021/04/01 01:08:42;;;;;;;38.42;17.67;;;;;;;;;;5020517;28;20417;-58
2021/04/01 01:11:08;;;;;;;43.80;18.40;;;;;;;;;;5022002;28;20045;-58
2021/04/01 01:13:33;;;;;;;40.80;18.20;;;;;;;;;;5019069;28;20033;-57
2021/04/01 01:15:58;;;;;;;44.42;18.30;;;;;;;;;;5020588;28;20037;-57
2021/04/01 01:18:27;;;;;;;43.50;19.87;;;;;;;;;;5020213;28;20449;-58
2021/04/01 01:20:55;;;;;;;37.40;17.83;;;;;;;;;;5019471;28;20262;-57
2021/04/01 01:23:21;;;;;;;50.60;20.40;;;;;;;;;;5017092;28;20291;-57
2021/04/01 01:25:47;;;;;;;52.97;20.08;;;;;;;;;;5011900;28;20317;-58
2021/04/01 01:28:12;;;;;;;52.67;21.57;;;;;;;;;;5011801;28;20046;-58
2021/04/01 01:30:38;;;;;;;59.53;22.37;;;;;;;;;;5011490;28;20026;-58
2021/04/01 01:33:07;;;;;;;58.40;24.63;;;;;;;;;;5011462;28;20275;-57
2021/04/01 01:35:34;;;;;;;54.50;21.27;;;;;;;;;;5010958;28;20022;-58
2021/04/01 01:37:59;;;;;;;;;;;;;;;;;;5010885;28;20275;-57
2021/04/01 01:40:25;;;;;;;54.20;20.30;;;;;;;;;;5010819;28;19932;-57
2021/04/01 01:42:52;;;;;;;46.00;19.67;;;;;;;;;;5009892;28;20069;-58
2021/04/01 01:45:18;;;;;;;51.10;21.80;;;;;;;;;;5010171;28;20141;-58
2021/04/01 01:47:43;;;;;;;;;;;;;;;;;;5011743;28;20442;-58
2021/04/01 01:50:10;;;;;;;53.13;20.90;;;;;;;;;;5011327;28;19909;-58
2021/04/01 01:52:35;;;;;;;49.72;19.80;;;;;;;;;;5011152;28;20050;-58
2021/04/01 01:55:00;;;;;;;50.67;20.53;;;;;;;;;;5011593;28;20025;-59
2021/04/01 01:57:26;;;;;;;52.97;22.30;;;;;;;;;;5010995;28;20168;-58
2021/04/01 01:59:51;;;;;;;50.33;19.80;;;;;;;;;;5011528;28;20030;-59
2021/04/01 02:02:16;;;;;;;49.47;21.40;;;;;;;;;;5010112;28;20129;-59
2021/04/01 02:04:42;;;;;;;53.77;20.87;;;;;;;;;;5011983;28;20049;-59
2021/04/01 02:07:07;;;;;;;44.13;19.37;;;;;;;;;;5014944;28;20038;-58
2021/04/01 02:09:32;;;;;;;53.40;21.00;;;;;;;;;;5014434;28;20045;-58
2021/04/01 02:11:58;;;;;;;53.00;21.57;;;;;;;;;;5013705;28;20496;-59
2021/04/01 02:14:23;;;;;;;47.73;20.17;;;;;;;;;;5013100;28;20481;-58
2021/04/01 02:16:55;;;;;;;50.73;21.13;;;;;;;;;;5015030;28;20038;-58
2021/04/01 02:19:21;;;;;;;52.43;19.93;;;;;;;;;;5014752;28;20278;-59
2021/04/01 02:21:47;;;;;;;44.22;20.25;;;;;;;;;;5014551;28;20446;-58
2021/04/01 02:24:12;;;;;;;51.50;22.03;;;;;;;;;;5013636;28;20088;-59
2021/04/01 02:26:38;;;;;;;46.13;19.83;;;;;;;;;;5013396;28;20030;-59
2021/04/01 02:29:03;;;;;;;47.47;20.93;;;;;;;;;;5013971;28;20053;-59
2021/04/01 02:31:29;;;;;;;41.20;18.17;;;;;;;;;;5014131;28;20445;-59
2021/04/01 02:33:54;;;;;;;34.63;14.73;;;;;;;;;;5014732;28;20458;-58
2021/04/01 02:36:20;;;;;;;44.90;19.03;;;;;;;;;;5014285;28;20034;-58
2021/04/01 02:38:45;;;;;;;44.93;19.80;;;;;;;;;;5012605;28;20049;-59
2021/04/01 02:41:11;;;;;;;46.73;19.27;;;;;;;;;;5014392;28;20390;-59
2021/04/01 02:43:36;;;;;;;42.80;18.08;;;;;;;;;;5013814;28;20038;-58
2021/04/01 02:46:05;;;;;;;44.27;19.57;;;;;;;;;;5014530;28;20041;-58
2021/04/01 02:48:31;;;;;;;37.07;17.80;;;;;;;;;;5013774;28;20037;-57
2021/04/01 02:50:57;;;;;;;51.33;20.42;;;;;;;;;;5014444;28;20305;-58
2021/04/01 02:53:23;;;;;;;46.88;19.80;;;;;;;;;;5014062;28;20037;-59
2021/04/01 02:55:48;;;;;;;41.38;19.27;;;;;;;;;;5013324;28;20164;-59
2021/04/01 02:58:14;;;;;;;46.20;18.23;;;;;;;;;;5013884;28;20376;-58
2021/04/01 03:00:40;;;;;;;42.03;18.93;;;;;;;;;;5013518;28;20029;-59
2021/04/01 03:03:28;;;;;;;48.08;18.38;;;;;;;;;;5012790;28;20026;-58
2021/04/01 03:05:55;;;;;;;51.20;20.03;;;;;;;;;;5014113;28;20112;-58
2021/04/01 03:08:21;;;;;;;46.83;18.97;;;;;;;;;;5013921;28;20256;-58
2021/04/01 03:10:46;;;;;;;41.60;17.87;;;;;;;;;;5013246;28;20816;-57
2021/04/01 03:13:12;;;;;;;52.07;18.60;;;;;;;;;;5013421;28;20604;-58
2021/04/01 03:15:37;;;;;;;44.93;19.40;;;;;;;;;;5012488;28;20037;-57
2021/04/01 03:18:03;;;;;;;42.23;19.27;;;;;;;;;;5013062;28;20482;-58
2021/04/01 03:20:28;;;;;;;44.90;19.37;;;;;;;;;;5013010;28;20062;-56
2021/04/01 03:22:54;;;;;;;51.43;19.13;;;;;;;;;;5013625;28;20041;-58
2021/04/01 03:25:19;;;;;;;48.80;20.20;;;;;;;;;;5013601;28;20263;-58
2021/04/01 03:27:44;;;;;;;44.43;18.53;;;;;;;;;;5011437;28;20038;-60
2021/04/01 03:30:13;;;;;;;44.80;19.30;;;;;;;;;;5013260;28;20026;-58
2021/04/01 03:32:39;;;;;;;49.70;21.07;;;;;;;;;;5012315;28;20037;-58
2021/04/01 03:35:05;;;;;;;44.30;18.30;;;;;;;;;;5012159;28;20259;-59
2021/04/01 03:37:31;;;;;;;45.53;19.08;;;;;;;;;;5012762;28;20314;-57
2021/04/01 03:39:56;;;;;;;52.05;22.48;;;;;;;;;;5011888;28;20441;-58
2021/04/01 03:42:23;;;;;;;44.70;18.40;;;;;;;;;;5012839;28;20470;-58
2021/04/01 03:44:48;;;;;;;50.78;20.80;;;;;;;;;;5012366;28;20149;-58
2021/04/01 03:47:13;;;;;;;47.93;20.00;;;;;;;;;;5013226;28;20097;-58
2021/04/01 03:49:39;;;;;;;52.30;21.13;;;;;;;;;;5012296;28;20434;-58
2021/04/01 03:52:05;;;;;;;54.23;21.50;;;;;;;;;;5011823;28;20546;-58
2021/04/01 03:54:30;;;;;;;46.42;20.10;;;;;;;;;;5011755;28;20037;-58
2021/04/01 03:56:55;;;;;;;49.50;17.90;;;;;;;;;;5012086;28;20026;-58
2021/04/01 03:59:25;;;;;;;48.47;17.83;;;;;;;;;;5012884;28;20026;-58
2021/04/01 04:14:47;;;;;;;48.17;20.13;;;;;;;;;;5011890;28;20398;-58
2021/04/01 04:17:14;;;;;;;42.80;18.65;;;;;;;;;;5011324;28;20040;-59
2021/04/01 04:19:39;;;;;;;47.40;19.55;;;;;;;;;;5011644;28;20038;-59
2021/04/01 04:22:04;;;;;;;49.47;21.27;;;;;;;;;;5011206;28;20048;-59
2021/04/01 04:24:33;;;;;;;40.63;18.33;;;;;;;;;;5012451;28;20470;-58
2021/04/01 04:27:05;;;;;;;49.33;18.38;;;;;;;;;;5011658;28;20042;-58
2021/04/01 04:29:31;;;;;;;41.20;18.55;;;;;;;;;;5010460;28;20033;-59
2021/04/01 04:31:56;;;;;;;43.77;19.20;;;;;;;;;;5011692;28;20052;-58
2021/04/01 04:34:22;;;;;;;44.13;18.37;;;;;;;;;;5012330;28;20034;-58
2021/04/01 04:36:47;;;;;;;43.13;19.13;;;;;;;;;;4994239;28;20057;-59
2021/04/01 04:39:12;;;;;;;46.60;18.17;;;;;;;;;;5012719;28;20041;-59
2021/04/01 04:41:37;;;;;;;43.27;17.70;;;;;;;;;;5010570;28;20100;-56
2021/04/01 04:44:03;;;;;;;50.87;20.73;;;;;;;;;;5012646;28;20091;-58
2021/04/01 04:46:28;;;;;;;41.23;19.50;;;;;;;;;;5011842;28;20451;-58
2021/04/01 04:48:54;;;;;;;43.40;18.83;;;;;;;;;;5011461;28;20485;-59
2021/04/01 04:51:19;;;;;;;46.37;18.27;;;;;;;;;;5012257;28;20026;-58
2021/04/01 04:53:44;;;;;;;48.87;19.47;;;;;;;;;;5011676;28;20038;-58
2021/04/01 04:56:13;;;;;;;43.33;18.60;;;;;;;;;;5010568;28;20048;-58
2021/04/01 05:09:03;;;;;;;48.83;20.08;;;;;;;;;;5011484;28;20026;-58
2021/04/01 05:11:30;;;;;;;52.45;20.92;;;;;;;;;;5012203;28;20087;-58
2021/04/01 05:13:55;;;;;;;54.83;22.00;;;;;;;;;;5009925;28;20363;-57
2021/04/01 05:16:21;;;;;;;50.03;19.63;;;;;;;;;;5010681;28;20037;-58
2021/04/01 05:18:47;;;;;;;46.47;20.30;;;;;;;;;;5009921;28;20492;-57
2021/04/01 05:21:14;;;;;;;50.43;21.47;;;;;;;;;;5011640;28;20030;-59
2021/04/01 05:23:51;;;;;;;;;;;;;;;;;;5012122;28;20116;-58
2021/04/01 05:28:49;;;;;;;51.33;19.75;;;;;;;;;;5011185;28;20038;-58
2021/04/01 05:31:16;;;;;;;47.67;21.08;;;;;;;;;;5011296;28;20058;-58
2021/04/01 05:33:47;;;;;;;48.50;21.23;;;;;;;;;;5010696;28;20044;-57
2021/04/01 05:36:16;;;;;;;52.15;22.02;;;;;;;;;;5009030;28;20022;-59
2021/04/01 05:38:41;;;;;;;48.63;21.50;;;;;;;;;;5011700;28;20411;-59
2021/04/01 05:41:09;;;;;;;48.45;21.42;;;;;;;;;;5014613;28;20133;-58
2021/04/01 05:43:38;;;;;;;58.78;24.02;;;;;;;;;;5015506;28;20046;-58
2021/04/01 05:46:12;;;;;;;55.05;21.73;;;;;;;;;;5014593;28;20062;-58
2021/04/01 05:48:51;;;;;;;56.33;22.83;;;;;;;;;;5014795;28;20030;-58
2021/04/01 06:02:16;;;;;;;60.67;22.10;;;;;;;;;;5018402;28;20091;-59
2021/04/01 06:04:47;;;;;;;59.60;23.23;;;;;;;;;;5016320;28;20156;-58
2021/04/01 06:07:25;;;;;;;55.75;24.17;;;;;;;;;;5025224;28;20470;-58
2021/04/01 06:09:55;;;;;;;59.75;23.10;;;;;;;;;;5021901;28;20036;-57
2021/04/01 06:12:20;;;;;;;63.97;23.92;;;;;;;;;;5021077;28;20026;-59
2021/04/01 06:14:55;;;;;;;58.73;23.07;;;;;;;;;;5024338;28;20018;-57
2021/04/01 06:17:22;;;;;;;50.65;21.55;;;;;;;;;;4994175;28;20109;-58
2021/04/01 06:19:48;;;;;;;66.72;24.83;;;;;;;;;;4994593;28;20044;-57
2021/04/01 06:22:14;;;;;;;58.08;22.88;;;;;;;;;;4995009;28;20462;-58
2021/04/01 06:24:39;;;;;;;57.97;22.83;;;;;;;;;;4995260;28;20037;-58
2021/04/01 06:27:17;;;;;;;63.80;23.43;;;;;;;;;;4994681;28;20033;-58
2021/04/01 06:30:10;;;;;;;48.80;19.88;;;;;;;;;;4995061;28;20471;-58
2021/04/01 06:32:29;;;;;;;53.72;22.15;;;;;;;;;;4993429;28;20043;-59
2021/04/01 06:34:55;;;;;;;52.92;22.73;;;;;;;;;;4997774;28;20108;-57
2021/04/01 06:40:03;;;;;;;56.83;22.08;;;;;;;;;;5033200;28;20032;-58
2021/04/01 06:42:30;;;;;;;60.90;24.65;;;;;;;;;;5034148;28;20037;-58
2021/04/01 06:44:58;;;;;;;63.60;24.35;;;;;;;;;;5031876;28;20412;-56
2021/04/01 06:47:27;;;;;;;60.38;22.60;;;;;;;;;;5034033;28;20124;-59
2021/04/01 06:49:59;;;;;;;74.53;29.47;;;;;;;;;;5033564;28;20117;-57
2021/04/01 06:52:29;;;;;;;66.57;25.93;;;;;;;;;;5031196;28;20674;-58
2021/04/01 06:55:01;;;;;;;85.07;29.70;;;;;;;;;;5031001;28;20262;-57
2021/04/01 07:00:22;;;;;;;84.35;32.08;;;;;;;;;;5023671;28;20266;-59
2021/04/01 07:03:00;;;;;;;76.93;26.75;;;;;;;;;;5008065;28;20317;-57
2021/04/01 07:07:58;;;;;;;72.47;28.37;;;;;;;;;;5013082;28;20252;-55
2021/04/01 07:10:39;;;;;;;70.73;26.37;;;;;;;;;;5013439;28;20053;-57
2021/04/01 07:13:07;;;;;;;79.77;31.93;;;;;;;;;;5006307;28;20272;-58
2021/04/01 07:15:34;;;;;;;86.20;31.70;;;;;;;;;;4992507;28;20354;-59
2021/04/01 07:18:10;;;;;;;93.57;36.97;;;;;;;;;;5010846;28;20259;-58
2021/04/01 07:20:42;;;;;;;79.17;31.57;;;;;;;;;;5013456;28;20286;-58
2021/04/01 07:35:09;;;;;;;106.73;44.37;;;;;;;;;;5013123;28;20263;-59
2021/04/01 07:48:46;;;;;;;91.90;38.37;;;;;;;;;;5012536;28;20290;-58
2021/04/01 07:51:22;;;;;;;97.63;40.23;;;;;;;;;;5012330;28;20243;-58
2021/04/01 07:53:51;;;;;;;105.93;42.45;;;;;;;;;;5012670;28;20743;-59
2021/04/01 07:56:20;;;;;;;92.30;37.07;;;;;;;;;;5012051;28;20084;-61
2021/04/01 08:01:34;;;;;;;91.07;40.37;;;;;;;;;;5011400;28;20272;-58
2021/04/01 08:04:01;;;;;;;117.95;48.67;;;;;;;;;;5010660;28;20433;-58
2021/04/01 08:06:29;;;;;;;108.20;46.27;;;;;;;;;;5011120;28;20091;-59
2021/04/01 08:08:58;;;;;;;93.70;37.53;;;;;;;;;;5012400;28;20278;-59
2021/04/01 08:11:27;;;;;;;86.20;35.77;;;;;;;;;;5012580;28;20259;-58
2021/04/01 08:14:16;;;;;;;54.40;24.00;;;;;;;;;;5012126;28;20271;-58
2021/04/01 08:16:59;;;;;;;107.17;44.20;;;;;;;;;;5011911;28;20676;-57
2021/04/01 08:19:27;;;;;;;92.50;38.50;;;;;;;;;;5012291;28;20731;-58
2021/04/01 08:21:54;;;;;;;84.57;36.37;;;;;;;;;;5012290;28;20264;-59
2021/04/01 08:24:26;;;;;;;100.60;45.40;;;;;;;;;;5011587;28;20263;-59
2021/04/01 08:36:53;;;;;;;80.30;36.23;;;;;;;;;;5013402;28;20037;-58
2021/04/01 08:39:19;;;;;;;78.95;36.15;;;;;;;;;;5011703;28;20705;-58
2021/04/01 08:41:54;;;;;;;89.90;36.92;;;;;;;;;;5010903;28;20034;-58
2021/04/01 08:44:38;;;;;;;93.23;37.43;;;;;;;;;;5010139;28;20120;-60
2021/04/01 08:47:12;;;;;;;73.47;32.33;;;;;;;;;;5010497;28;20321;-59
2021/04/01 08:49:50;;;;;;;91.07;40.70;;;;;;;;;;5012316;28;20275;-59
2021/04/01 08:52:20;;;;;;;93.20;40.57;;;;;;;;;;5011256;28;20365;-59
2021/04/01 08:54:55;;;;;;;96.23;41.93;;;;;;;;;;5011849;28;20264;-59
2021/04/01 08:57:23;;;;;;;97.03;41.50;;;;;;;;;;5018806;28;20262;-59
2021/04/01 09:00:08;;;;;;;103.13;46.73;;;;;;;;;;5029980;28;20274;-59
2021/04/01 09:02:34;;;;;;;98.27;42.13;;;;;;;;;;5031161;28;20741;-60
2021/04/01 09:05:02;;;;;;;86.15;38.13;;;;;;;;;;5030028;28;20251;-58
2021/04/01 09:07:36;;;;;;;77.37;33.83;;;;;;;;;;5031496;28;20088;-59
2021/04/01 09:10:06;;;;;;;68.97;31.83;;;;;;;;;;5030990;28;20270;-58
2021/04/01 09:12:40;;;;;;;107.30;48.10;;;;;;;;;;5031194;28;20037;-59
2021/04/01 09:15:13;;;;;;;68.93;31.77;;;;;;;;;;5029561;28;20474;-58
2021/04/01 09:17:38;;;;;;;96.47;42.23;;;;;;;;;;5031057;28;20033;-59
2021/04/01 09:20:11;;;;;;;60.83;29.85;;;;;;;;;;5030640;28;20037;-59
2021/04/01 09:22:42;;;;;;;102.13;48.50;;;;;;;;;;5030845;28;20510;-59
2021/04/01 09:25:07;;;;;;;80.20;37.13;;;;;;;;;;5029274;28;20037;-59
2021/04/01 09:27:42;;;;;;;63.05;30.23;;;;;;;;;;5031331;28;20021;-60
2021/04/01 09:30:10;;;;;;;54.80;26.87;;;;;;;;;;5030408;28;20029;-58
2021/04/01 09:32:37;;;;;;;72.50;33.73;;;;;;;;;;5030954;28;20106;-60
2021/04/01 09:35:04;;;;;;;58.43;28.27;;;;;;;;;;5031177;28;20084;-59
2021/04/01 09:37:30;;;;;;;45.50;22.47;;;;;;;;;;5031174;28;20565;-59
2021/04/01 09:40:06;;;;;;;72.15;34.28;;;;;;;;;;5031490;28;20104;-59
2021/04/01 09:42:36;;;;;;;55.45;27.52;;;;;;;;;;5031084;28;20041;-58
2021/04/01 09:45:01;;;;;;;60.53;29.20;;;;;;;;;;5030823;28;20140;-59
2021/04/01 09:47:27;;;;;;;;;;;;;;;;;;5029907;28;20053;-60
2021/04/01 09:50:18;;;;;;;58.10;27.70;;;;;;;;;;5030966;28;20038;-60
2021/04/01 09:53:09;;;;;;;61.43;29.03;;;;;;;;;;5027908;28;20056;-59
2021/04/01 09:55:42;;;;;;;42.37;20.17;;;;;;;;;;5029809;28;20052;-59
2021/04/01 09:58:28;;;;;;;48.40;22.17;;;;;;;;;;5029044;28;20057;-59
2021/04/01 10:03:23;;;;;;;35.60;18.23;;;;;;;;;;5030374;28;20129;-58
2021/04/01 10:05:49;;;;;;;30.13;14.40;;;;;;;;;;5030991;28;20065;-59
2021/04/01 10:08:24;;;;;;;34.10;17.33;;;;;;;;;;5030424;28;20033;-59
2021/04/01 10:10:51;;;;;;;28.03;13.97;;;;;;;;;;5030534;28;20033;-58
2021/04/01 10:13:23;;;;;;;25.70;12.80;;;;;;;;;;5030306;28;20041;-58
2021/04/01 10:15:49;;;;;;;21.47;9.97;;;;;;;;;;5030045;28;20033;-59
2021/04/01 10:18:17;;;;;;;16.80;7.90;;;;;;;;;;5030260;28;20079;-58
2021/04/01 10:20:51;;;;;;;24.33;12.10;;;;;;;;;;5029369;28;20061;-58
2021/04/01 10:23:17;;;;;;;21.03;9.93;;;;;;;;;;5030204;28;20030;-58
2021/04/01 10:25:56;;;;;;;19.50;8.10;;;;;;;;;;5030582;28;20121;-58
2021/04/01 10:28:27;;;;;;;24.00;8.13;;;;;;;;;;5033746;28;20492;-59
2021/04/01 10:30:54;;;;;;;11.90;6.03;;;;;;;;;;5033249;28;20038;-58
2021/04/01 10:33:22;;;;;;;10.07;4.72;;;;;;;;;;5033382;28;20358;-58
2021/04/01 10:35:48;;;;;;;17.75;4.97;;;;;;;;;;5033931;28;20055;-59
2021/04/01 10:38:15;;;;;;;13.77;5.63;;;;;;;;;;5033573;28;20045;-59
2021/04/01 10:40:40;;;;;;;15.48;5.53;;;;;;;;;;5033897;28;20131;-59
2021/04/01 10:43:07;;;;;;;10.88;4.00;;;;;;;;;;5033783;28;20038;-59
2021/04/01 10:45:46;;;;;;;12.82;5.15;;;;;;;;;;5047472;28;20043;-58
2021/04/01 10:48:11;;;;;;;13.90;4.20;;;;;;;;;;5033584;28;20075;-59
2021/04/01 10:50:37;;;;;;;13.30;4.65;;;;;;;;;;5033877;28;20465;-60
2021/04/01 10:53:03;;;;;;;6.50;3.30;;;;;;;;;;5033767;28;20045;-60
2021/04/01 10:55:30;;;;;;;12.43;4.55;;;;;;;;;;5033050;28;20520;-59
2021/04/01 10:58:05;;;;;;;10.75;3.30;;;;;;;;;;5033839;28;20035;-59
2021/04/01 11:00:31;;;;;;;11.40;3.42;;;;;;;;;;5032307;28;20038;-58
2021/04/01 11:03:00;;;;;;;14.65;3.50;;;;;;;;;;5048409;28;20029;-59
2021/04/01 11:05:25;;;;;;;8.38;2.50;;;;;;;;;;5018778;28;20026;-60
2021/04/01 11:07:52;;;;;;;11.40;3.25;;;;;;;;;;5012142;28;20079;-60
2021/04/01 11:10:18;;;;;;;8.93;3.58;;;;;;;;;;5013005;28;20126;-60
2021/04/01 11:12:51;;;;;;;9.07;2.65;;;;;;;;;;5013557;28;20116;-60
2021/04/01 11:15:18;;;;;;;7.60;2.92;;;;;;;;;;5012068;28;20121;-59
2021/04/01 11:17:46;;;;;;;9.70;2.70;;;;;;;;;;5013129;28;20025;-59
2021/04/01 11:20:12;;;;;;;6.53;2.00;;;;;;;;;;5013156;28;20033;-57
2021/04/01 11:22:38;;;;;;;6.85;2.75;;;;;;;;;;5013051;28;20038;-60
2021/04/01 11:25:10;;;;;;;9.20;2.78;;;;;;;;;;5012014;28;20046;-60
2021/04/01 11:27:36;;;;;;;8.77;2.60;;;;;;;;;;5012854;28;20034;-59
2021/04/01 11:30:03;;;;;;;5.63;2.00;;;;;;;;;;5012029;28;20033;-58
2021/04/01 11:32:30;;;;;;;7.28;2.22;;;;;;;;;;5011209;28;20037;-59
2021/04/01 11:34:57;;;;;;;7.97;2.08;;;;;;;;;;5012784;28;20104;-59
2021/04/01 11:37:24;;;;;;;8.18;2.33;;;;;;;;;;5013530;28;20030;-58
2021/04/01 11:39:55;;;;;;;7.97;2.42;;;;;;;;;;5014639;28;20022;-59
2021/04/01 11:42:20;;;;;;;8.15;1.88;;;;;;;;;;5012039;28;20049;-59
2021/04/01 11:44:46;;;;;;;10.82;3.38;;;;;;;;;;5012015;28;20029;-59
2021/04/01 11:47:21;;;;;;;9.65;2.88;;;;;;;;;;5012760;28;20483;-59
2021/04/01 11:49:48;;;;;;;11.10;3.10;;;;;;;;;;5028152;28;20374;-60
2021/04/01 11:52:14;;;;;;;9.98;3.80;;;;;;;;;;5012590;28;20371;-60
2021/04/01 11:54:40;;;;;;;13.02;4.40;;;;;;;;;;5023048;28;20037;-60
2021/04/01 11:57:16;;;;;;;9.77;2.83;;;;;;;;;;4994648;28;20030;-60
2021/04/01 11:59:42;;;;;;;7.38;2.65;;;;;;;;;;4995664;28;20034;-60
2021/04/01 12:02:10;;;;;;;9.25;2.25;;;;;;;;;;5011818;28;20378;-60
2021/04/01 12:04:38;;;;;;;13.10;2.95;;;;;;;;;;5012097;28;20034;-60
2021/04/01 12:07:05;;;;;;;8.75;2.53;;;;;;;;;;5012534;28;20075;-59
2021/04/01 12:09:31;;;;;;;11.70;2.83;;;;;;;;;;5011816;28;20037;-59
2021/04/01 12:11:56;;;;;;;9.00;3.03;;;;;;;;;;5012547;28;20517;-59
2021/04/01 12:14:31;;;;;;;16.02;6.45;;;;;;;;;;5010828;28;20030;-59
2021/04/01 12:17:00;;;;;;;6.80;2.60;;;;;;;;;;5012111;28;20058;-59
2021/04/01 12:19:25;;;;;;;8.70;2.97;;;;;;;;;;5011747;28;20451;-58
2021/04/01 12:21:51;;;;;;;13.10;2.70;;;;;;;;;;5013261;28;20041;-60
2021/04/01 12:24:17;;;;;;;6.40;2.35;;;;;;;;;;5010409;28;20045;-59
2021/04/01 12:26:49;;;;;;;11.23;3.67;;;;;;;;;;5011129;28;20481;-60
2021/04/01 12:29:15;;;;;;;12.93;3.00;;;;;;;;;;5011412;28;20033;-59
2021/04/01 12:31:41;;;;;;;8.77;2.28;;;;;;;;;;5010866;28;20029;-60
2021/04/01 12:34:11;;;;;;;8.73;2.78;;;;;;;;;;5012137;28;20030;-59
2021/04/01 12:36:38;;;;;;;7.00;2.40;;;;;;;;;;5011440;28;20025;-59
2021/04/01 12:39:05;;;;;;;8.43;2.72;;;;;;;;;;5011882;28;20047;-59
2021/04/01 12:41:31;;;;;;;6.03;2.35;;;;;;;;;;5010987;28;20390;-59
2021/04/01 12:43:57;;;;;;;10.40;2.63;;;;;;;;;;5012904;28;20080;-58
2021/04/01 12:46:23;;;;;;;9.55;3.85;;;;;;;;;;5008798;28;20519;-60
2021/04/01 12:48:48;;;;;;;6.32;1.90;;;;;;;;;;5011330;28;20113;-59
2021/04/01 12:51:18;;;;;;;9.65;2.00;;;;;;;;;;5011351;28;20120;-59
2021/04/01 12:53:44;;;;;;;6.43;1.73;;;;;;;;;;5011640;28;20052;-59
2021/04/01 12:56:18;;;;;;;9.45;2.25;;;;;;;;;;5010157;28;20112;-59
2021/04/01 12:58:48;;;;;;;7.82;2.08;;;;;;;;;;5011047;28;20080;-59
2021/04/01 13:01:40;;;;;;;8.20;1.80;;;;;;;;;;5010936;28;20037;-58
2021/04/01 13:04:10;;;;;;;5.95;1.90;;;;;;;;;;5011883;28;20030;-58
2021/04/01 13:11:52;;;;;;;8.93;2.53;;;;;;;;;;5011628;28;20045;-60
2021/04/01 13:14:18;;;;;;;16.40;2.67;;;;;;;;;;5010486;28;20087;-59
2021/04/01 13:16:44;;;;;;;10.18;2.58;;;;;;;;;;5026032;28;20074;-59
2021/04/01 13:19:09;;;;;;;7.82;1.85;;;;;;;;;;5011612;28;20520;-59
2021/04/01 13:26:46;;;;;;;9.68;3.75;;;;;;;;;;5011514;28;20157;-59
2021/04/01 13:29:12;;;;;;;10.25;2.53;;;;;;;;;;5015062;28;20418;-60
2021/04/01 13:34:53;;;;;;;5.80;1.58;;;;;;;;;;5031063;28;20033;-59
2021/04/01 13:37:14;;;;;;;5.32;2.00;;;;;;;;;;5022614;28;20191;-59
2021/04/01 13:39:52;;;;;;;8.82;2.95;;;;;;;;;;5030548;28;20439;-59
2021/04/01 13:42:20;;;;;;;8.88;2.15;;;;;;;;;;5030945;28;20029;-59
2021/04/01 13:44:53;;;;;;;6.38;2.45;;;;;;;;;;5029464;28;20018;-59
2021/04/01 13:47:23;;;;;;;6.75;2.00;;;;;;;;;;5030981;28;20056;-59
2021/04/01 13:49:51;;;;;;;6.47;1.90;;;;;;;;;;5030946;28;20033;-59
2021/04/01 13:57:26;;;;;;;6.95;2.65;;;;;;;;;;5030964;28;20041;-59
2021/04/01 14:10:53;;;;;;;9.43;1.90;;;;;;;;;;5035007;28;20041;-59
2021/04/01 14:13:22;;;;;;;6.78;2.10;;;;;;;;;;5032292;28;20036;-58
2021/04/01 14:15:48;;;;;;;9.90;3.55;;;;;;;;;;5033862;28;20026;-58
2021/04/01 14:18:15;;;;;;;5.55;2.55;;;;;;;;;;5034057;28;20026;-58
2021/04/01 14:20:40;;;;;;;8.43;3.00;;;;;;;;;;5033903;28;20064;-59
2021/04/01 14:23:06;;;;;;;9.70;2.47;;;;;;;;;;5034407;28;20065;-59
2021/04/01 14:25:37;;;;;;;12.55;3.20;;;;;;;;;;5033540;28;20040;-60
2021/04/01 14:28:03;;;;;;;7.00;2.08;;;;;;;;;;5033806;28;20030;-58
2021/04/01 14:30:29;;;;;;;4.10;1.35;;;;;;;;;;5032460;28;20041;-58
2021/04/01 14:32:56;;;;;;;10.98;2.80;;;;;;;;;;5034220;28;20029;-59
2021/04/01 14:35:21;;;;;;;6.80;2.50;;;;;;;;;;5034222;28;20430;-58
2021/04/01 14:37:47;;;;;;;7.95;2.20;;;;;;;;;;5033592;28;20033;-58
2021/04/01 14:40:13;;;;;;;7.75;2.30;;;;;;;;;;5033904;28;20029;-58
2021/04/01 14:42:44;;;;;;;7.95;2.17;;;;;;;;;;5033195;28;20041;-59
2021/04/01 14:45:10;;;;;;;7.28;1.95;;;;;;;;;;5033460;28;20044;-59
2021/04/01 14:47:36;;;;;;;10.40;2.05;;;;;;;;;;5033379;28;20054;-58
2021/04/01 14:50:04;;;;;;;9.82;2.38;;;;;;;;;;5034020;28;20104;-58
2021/04/01 14:52:30;;;;;;;6.18;2.08;;;;;;;;;;5033190;28;20037;-57
2021/04/01 14:54:56;;;;;;;11.93;3.42;;;;;;;;;;5032308;28;20106;-58
2021/04/01 14:57:22;;;;;;;19.85;7.03;;;;;;;;;;5033609;28;20025;-58
2021/04/01 14:59:48;;;;;;;15.50;4.80;;;;;;;;;;5031645;28;20037;-58
2021/04/01 15:02:15;;;;;;;9.68;2.45;;;;;;;;;;5033331;28;20036;-57
2021/04/01 15:04:40;;;;;;;16.60;3.55;;;;;;;;;;5013544;28;20105;-57
2021/04/01 15:07:06;;;;;;;8.27;2.60;;;;;;;;;;5013140;28;20066;-58
2021/04/01 15:09:31;;;;;;;9.75;3.00;;;;;;;;;;5013201;28;20034;-57
2021/04/01 15:11:57;;;;;;;10.10;3.67;;;;;;;;;;5012478;28;20033;-58
2021/04/01 15:14:22;;;;;;;11.05;2.63;;;;;;;;;;5027669;28;20038;-59
2021/04/01 15:16:48;;;;;;;12.75;2.40;;;;;;;;;;5012870;28;20129;-57
2021/04/01 15:19:14;;;;;;;11.07;2.60;;;;;;;;;;5013299;28;20116;-58
2021/04/01 15:21:40;;;;;;;11.45;3.28;;;;;;;;;;5011613;28;20076;-56
2021/04/01 15:24:07;;;;;;;16.33;4.38;;;;;;;;;;5012988;28;20415;-58
2021/04/01 15:26:32;;;;;;;11.82;3.30;;;;;;;;;;5010965;28;20060;-57
2021/04/01 15:28:58;;;;;;;9.18;3.05;;;;;;;;;;5011224;28;20022;-57
2021/04/01 15:31:24;;;;;;;11.98;3.72;;;;;;;;;;5013357;28;20034;-58
2021/04/01 15:33:50;;;;;;;11.05;3.92;;;;;;;;;;5012602;28;20030;-58
2021/04/01 15:36:15;;;;;;;10.07;2.25;;;;;;;;;;5013017;28;20049;-58
2021/04/01 15:38:42;;;;;;;13.77;4.30;;;;;;;;;;5012530;28;20037;-58
2021/04/01 15:41:07;;;;;;;9.27;3.50;;;;;;;;;;5010366;28;20064;-57
2021/04/01 15:43:33;;;;;;;13.23;4.72;;;;;;;;;;5011538;28;20050;-56
2021/04/01 15:45:58;;;;;;;22.50;3.80;;;;;;;;;;5029354;28;20030;-58
2021/04/01 15:48:24;;;;;;;9.68;2.70;;;;;;;;;;5013054;28;20378;-59
2021/04/01 15:50:50;;;;;;;9.90;3.15;;;;;;;;;;5011258;28;20041;-58
2021/04/01 15:53:17;;;;;;;11.23;2.70;;;;;;;;;;5012359;28;20549;-58
2021/04/01 15:55:42;;;;;;;13.90;3.58;;;;;;;;;;5012002;28;20390;-58
2021/04/01 15:58:08;;;;;;;7.00;1.80;;;;;;;;;;5010782;28;20038;-58
2021/04/01 16:00:34;;;;;;;13.93;3.13;;;;;;;;;;5012856;28;20164;-58
2021/04/01 16:03:00;;;;;;;11.70;2.87;;;;;;;;;;5044279;28;20118;-58
2021/04/01 16:05:25;;;;;;;15.50;2.80;;;;;;;;;;5012822;28;20117;-58
2021/04/01 16:07:51;;;;;;;16.60;3.13;;;;;;;;;;5044182;28;20045;-57
2021/04/01 16:10:17;;;;;;;8.03;2.83;;;;;;;;;;5013000;28;20038;-57
2021/04/01 16:12:42;;;;;;;;;;;;;;;;;;5044148;28;20488;-57
2021/04/01 16:15:08;;;;;;;11.93;3.73;;;;;;;;;;5012708;28;19913;-58
2021/04/01 16:17:33;;;;;;;9.95;2.22;;;;;;;;;;5012747;28;20034;-58
2021/04/01 16:19:58;;;;;;;12.95;3.22;;;;;;;;;;5012409;28;20034;-57
2021/04/01 16:22:24;;;;;;;14.77;3.25;;;;;;;;;;5012730;28;20034;-58